Terminal Aerodrome Forecast
Issued by NWS Sioux Falls, SD

Home | Current Version | Previous Version | Text Only | Print | Product List | Glossary On
Versions: 1 2 3 4 5 6 7 8 9 10 11 12 13 14
000
FTUS43 KFSD 022342
TAFHON
TAF
KHON 022342Z 0300/0324 17011KT P6SM SKC
     FM030100 17007KT P6SM SKC
     FM031400 16011G17KT P6SM SCT015 BKN200
     FM031700 18012G18KT P6SM BKN025
     FM031900 17011G18KT P6SM BKN035=

USA.gov is the U.S. government's official web portal to all federal, state and local government web resources and services.